createdAt,value
2023-12-11T00:01:33.661Z,100238.06
2023-12-11T00:04:37.106Z,100232.97
2023-12-11T00:07:39.787Z,100223.47
2023-12-11T00:10:43.018Z,100224.59
2023-12-11T00:13:45.695Z,100211.13
2023-12-11T00:16:48.994Z,100207.47
2023-12-11T00:19:51.805Z,100202.03
2023-12-11T00:22:55.362Z,100196.78
2023-12-11T00:25:58.042Z,100190.59
2023-12-11T00:29:01.223Z,100183.66
2023-12-11T00:32:04.769Z,100167.16
2023-12-11T00:35:08.183Z,100159.37
2023-12-11T00:38:10.828Z,100166.22
2023-12-11T00:41:14.122Z,100169.78
2023-12-11T00:44:16.908Z,100179.28
2023-12-11T00:47:20.140Z,100166.78
2023-12-11T00:50:22.802Z,100169.28
2023-12-11T00:53:26.046Z,100179.06
2023-12-11T00:56:29.447Z,100169.31
2023-12-11T00:59:32.695Z,100151.56
2023-12-11T01:02:35.370Z,100147.72
2023-12-11T01:05:38.513Z,100154.34
2023-12-11T01:08:41.433Z,100152.37
2023-12-11T01:11:44.744Z,100166.00
2023-12-11T01:14:47.384Z,100156.66
2023-12-11T01:17:50.930Z,100148.72
2023-12-11T01:20:53.809Z,100160.56
2023-12-11T01:23:58.183Z,100161.97
2023-12-11T01:27:00.916Z,100156.88
2023-12-11T01:30:04.466Z,100163.56
2023-12-11T01:33:07.144Z,100152.50
2023-12-11T01:36:10.532Z,100155.97
2023-12-11T01:39:13.133Z,100147.44
2023-12-11T01:42:16.609Z,100136.88
2023-12-11T01:45:19.289Z,100119.22
2023-12-11T01:48:23.376Z,100116.81
2023-12-11T01:51:26.464Z,100123.81
2023-12-11T01:54:30.530Z,100129.72
2023-12-11T01:57:33.407Z,100128.25
2023-12-11T02:00:36.727Z,100136.22
2023-12-11T02:03:40.145Z,100126.69
2023-12-11T02:06:43.432Z,100112.97
2023-12-11T02:09:46.057Z,100117.34
2023-12-11T02:12:49.520Z,100118.91
2023-12-11T02:15:52.489Z,100118.69
2023-12-11T02:18:55.882Z,100107.00
2023-12-11T02:21:58.620Z,100110.34
2023-12-11T02:25:05.331Z,100104.06
2023-12-11T02:28:08.257Z,100111.09
2023-12-11T02:31:12.180Z,100099.13
2023-12-11T02:34:14.901Z,100108.81
2023-12-11T02:37:18.217Z,100113.78
2023-12-11T02:40:20.851Z,100111.13
2023-12-11T02:43:24.138Z,100104.81
2023-12-11T02:46:26.921Z,100086.72
2023-12-11T02:49:30.446Z,100079.06
2023-12-11T02:52:33.132Z,100063.31
2023-12-11T02:55:36.396Z,100056.88
2023-12-11T02:58:39.153Z,100065.88
2023-12-11T03:01:42.513Z,100062.50
2023-12-11T03:04:45.351Z,100065.62
2023-12-11T03:07:48.919Z,100073.78
2023-12-11T03:10:51.560Z,100064.37
2023-12-11T03:13:54.701Z,100060.56
2023-12-11T03:16:57.241Z,100052.34
2023-12-11T03:20:00.896Z,100059.50
2023-12-11T03:23:03.601Z,100048.13
2023-12-11T03:26:06.823Z,100045.78
2023-12-11T03:29:09.478Z,100047.53
2023-12-11T03:32:12.947Z,100044.28
2023-12-11T03:35:15.658Z,100039.25
2023-12-11T03:38:18.859Z,100041.94
2023-12-11T03:41:21.428Z,100044.53
2023-12-11T03:44:25.296Z,100047.91
2023-12-11T03:47:28.144Z,100062.62
2023-12-11T03:50:31.549Z,100049.41
2023-12-11T03:53:34.157Z,100041.91
2023-12-11T03:56:37.612Z,100058.22
2023-12-11T03:59:40.208Z,100055.56
2023-12-11T04:02:43.900Z,100066.47
2023-12-11T04:05:47.636Z,100068.56
2023-12-11T04:08:50.512Z,100063.19
2023-12-11T04:11:53.479Z,100067.56
2023-12-11T04:14:56.310Z,100061.72
2023-12-11T04:17:59.184Z,100057.37
2023-12-11T04:21:02.391Z,100055.47
2023-12-11T04:24:05.891Z,100055.28
2023-12-11T04:27:08.607Z,100050.75
2023-12-11T04:30:11.929Z,100051.13
2023-12-11T04:33:14.886Z,100045.91
2023-12-11T04:36:17.889Z,100036.78
2023-12-11T04:39:20.757Z,100024.91
2023-12-11T04:42:23.801Z,100017.41
2023-12-11T04:45:26.747Z,100012.34
2023-12-11T04:48:29.737Z,100024.63
2023-12-11T04:51:32.688Z,100016.78
2023-12-11T04:54:35.940Z,100014.53
2023-12-11T04:57:39.009Z,100034.03
2023-12-11T05:00:42.087Z,100021.38
2023-12-11T05:03:45.544Z,100025.59
2023-12-11T05:06:48.351Z,100025.03
2023-12-11T05:09:51.241Z,100035.53
2023-12-11T05:12:54.205Z,100059.06
2023-12-11T05:15:57.139Z,100062.91
2023-12-11T05:19:00.165Z,100049.66
2023-12-11T05:22:04.006Z,100036.81
2023-12-11T05:25:07.689Z,100037.88
2023-12-11T05:28:10.627Z,100014.47
2023-12-11T05:31:13.655Z,100008.91
2023-12-11T05:34:16.655Z,100016.28
2023-12-11T05:37:19.696Z,100010.34
2023-12-11T05:40:24.061Z,100026.87
2023-12-11T05:43:27.281Z,100029.25
2023-12-11T05:46:30.256Z,100016.00
2023-12-11T05:49:33.211Z,100005.59
2023-12-11T05:52:36.310Z,99990.62
2023-12-11T05:55:39.202Z,99986.41
2023-12-11T05:58:42.164Z,99983.59
2023-12-11T06:01:45.336Z,99954.91
2023-12-11T06:04:48.538Z,99990.03
2023-12-11T06:07:51.136Z,100032.38
2023-12-11T06:10:54.836Z,100037.84
2023-12-11T06:13:57.436Z,100019.00
2023-12-11T06:17:01.141Z,100015.00
2023-12-11T06:20:05.514Z,100025.34
2023-12-11T06:23:08.705Z,100017.91
2023-12-11T06:26:11.841Z,100016.16
2023-12-11T06:29:14.859Z,100039.97
2023-12-11T06:32:17.424Z,100074.94
2023-12-11T06:35:20.604Z,100062.16
2023-12-11T06:38:23.203Z,100060.78
2023-12-11T06:41:26.508Z,100055.53
2023-12-11T06:44:29.173Z,100042.56
2023-12-11T06:47:32.759Z,100039.00
2023-12-11T06:50:36.653Z,100015.72
2023-12-11T06:53:39.827Z,100009.41
2023-12-11T06:56:42.822Z,100001.78
2023-12-11T06:59:46.116Z,100006.91
2023-12-11T07:02:48.783Z,100005.22
2023-12-11T07:05:52.048Z,99993.72
2023-12-11T07:08:54.735Z,99984.38
2023-12-11T07:11:58.006Z,99991.03
2023-12-11T07:15:01.633Z,99983.94
2023-12-11T07:18:04.978Z,99978.94
2023-12-11T07:21:10.980Z,99988.66
2023-12-11T07:24:14.372Z,100001.97
2023-12-11T07:27:17.128Z,100012.84
2023-12-11T07:30:20.733Z,100001.53
2023-12-11T07:33:23.550Z,99991.66
2023-12-11T07:36:28.937Z,99972.91
2023-12-11T07:39:31.458Z,100006.50
2023-12-11T07:42:34.706Z,100033.72
2023-12-11T07:45:37.325Z,100042.41
2023-12-11T07:48:41.353Z,100032.06
2023-12-11T07:51:44.573Z,100033.28
2023-12-11T07:54:47.809Z,100026.38
2023-12-11T07:57:50.359Z,100013.16
2023-12-11T08:00:53.917Z,100004.44
2023-12-11T08:03:56.994Z,99986.31
2023-12-11T08:07:00.017Z,99988.25
2023-12-11T08:10:05.735Z,99981.50
2023-12-11T08:13:08.823Z,99990.06
2023-12-11T08:16:13.725Z,99977.56
2023-12-11T08:19:16.674Z,99976.78
2023-12-11T08:22:19.661Z,99967.97
2023-12-11T08:25:23.201Z,99938.41
2023-12-11T08:28:26.225Z,99932.97
2023-12-11T08:31:29.273Z,99926.22
2023-12-11T08:34:32.512Z,99910.56
2023-12-11T08:37:36.240Z,99902.06
2023-12-11T08:40:39.330Z,99891.94
2023-12-11T08:43:42.308Z,99892.81
2023-12-11T08:46:45.689Z,99928.28
2023-12-11T08:49:48.705Z,99930.22
2023-12-11T08:52:51.676Z,99930.88
2023-12-11T08:55:55.656Z,99935.31
2023-12-11T08:58:58.684Z,99930.16
2023-12-11T09:02:01.630Z,99940.56
2023-12-11T09:05:05.090Z,99943.78
2023-12-11T09:08:08.106Z,99937.97
2023-12-11T09:11:10.954Z,99923.22
2023-12-11T09:14:13.849Z,99922.31
2023-12-11T09:17:16.748Z,99914.41
2023-12-11T09:20:19.737Z,99908.47
2023-12-11T09:23:22.797Z,99913.81
2023-12-11T09:26:26.015Z,99924.72
2023-12-11T09:29:28.893Z,99922.13
2023-12-11T09:32:31.847Z,99911.91
2023-12-11T09:35:34.898Z,99910.56
2023-12-11T09:38:38.526Z,99918.03
2023-12-11T09:41:44.098Z,99904.59
2023-12-11T09:44:48.808Z,99892.91
2023-12-11T09:48:04.787Z,99896.41
2023-12-11T09:51:16.498Z,99889.00
2023-12-11T09:54:19.469Z,99895.56
2023-12-11T09:57:22.911Z,99898.06
2023-12-11T10:00:26.203Z,99895.66
2023-12-11T10:03:29.989Z,99896.59
2023-12-11T10:06:32.672Z,99899.25
2023-12-11T10:09:35.780Z,99896.66
2023-12-11T10:21:18.087Z,99870.50
2023-12-11T10:24:21.261Z,99873.84
2023-12-11T10:27:28.339Z,99865.47
2023-12-11T10:30:31.718Z,99860.47
2023-12-11T10:33:35.027Z,99860.25
2023-12-11T10:36:49.423Z,99857.25
2023-12-11T10:39:55.853Z,99851.28
2023-12-11T10:43:01.701Z,99843.88
2023-12-11T10:46:04.622Z,99842.63
2023-12-11T10:49:08.496Z,99832.63
2023-12-11T10:52:12.136Z,99818.50
2023-12-11T10:55:16.064Z,99803.94
2023-12-11T10:58:19.031Z,99808.16
2023-12-11T11:01:22.678Z,99819.44
2023-12-11T11:04:27.393Z,99819.84
2023-12-11T11:07:36.470Z,99814.84
2023-12-11T11:10:48.844Z,99830.81
2023-12-11T11:14:25.213Z,99825.50
2023-12-11T11:18:03.814Z,99808.78
2023-12-11T11:21:14.173Z,99808.84
2023-12-11T11:24:30.146Z,99795.59
2023-12-11T11:27:44.116Z,99784.28
2023-12-11T11:30:52.843Z,99781.78
2023-12-11T11:33:58.467Z,99767.59
2023-12-11T11:37:01.843Z,99754.47
2023-12-11T11:40:05.930Z,99744.31
2023-12-11T11:43:10.362Z,99731.12
2023-12-11T11:46:13.589Z,99717.66
2023-12-11T11:49:33.666Z,99714.38
2023-12-11T11:52:40.134Z,99714.41
2023-12-11T11:55:43.269Z,99704.69
2023-12-11T11:58:47.027Z,99710.56
2023-12-11T12:01:54.312Z,99717.28
2023-12-11T12:05:09.841Z,99719.69
2023-12-11T12:08:13.871Z,99726.00
2023-12-11T12:11:17.103Z,99722.84
2023-12-11T12:14:22.607Z,99725.66
2023-12-11T12:17:26.082Z,99715.03
2023-12-11T12:20:28.963Z,99729.28
2023-12-11T12:23:33.050Z,99739.50
2023-12-11T12:26:37.078Z,99752.34
2023-12-11T12:29:41.816Z,99744.66
2023-12-11T12:32:45.049Z,99754.50
2023-12-11T12:35:50.071Z,99727.31
2023-12-11T12:38:52.858Z,99732.31
2023-12-11T12:41:57.664Z,99741.72
2023-12-11T12:45:00.816Z,99742.41
2023-12-11T12:48:05.905Z,99736.97
2023-12-11T12:51:10.803Z,99723.03
2023-12-11T12:54:15.887Z,99736.56
2023-12-11T12:57:18.693Z,99740.66
2023-12-11T13:00:21.838Z,99751.66
2023-12-11T13:03:25.493Z,99735.03
2023-12-11T13:06:28.926Z,99714.06
2023-12-11T13:09:33.258Z,99688.75
2023-12-11T13:12:36.538Z,99694.25
2023-12-11T13:15:40.544Z,99714.81
2023-12-11T13:18:43.973Z,99732.56
2023-12-11T13:21:46.885Z,99727.66
2023-12-11T13:24:50.039Z,99737.06
2023-12-11T13:27:52.667Z,99740.53
2023-12-11T13:30:55.739Z,99746.12
2023-12-11T13:33:58.454Z,99765.31
2023-12-11T13:37:01.595Z,99770.53
2023-12-11T13:40:08.341Z,99763.06
2023-12-11T13:43:12.867Z,99743.75
2023-12-11T13:46:15.893Z,99745.12
2023-12-11T13:49:19.232Z,99753.38
2023-12-11T13:52:22.332Z,99758.25
2023-12-11T13:55:25.604Z,99753.41
2023-12-11T13:58:28.807Z,99761.72
2023-12-11T14:01:32.054Z,99744.22
2023-12-11T14:04:34.983Z,99762.63
2023-12-11T14:07:38.010Z,99757.84
2023-12-11T14:10:41.028Z,99741.13
2023-12-11T14:13:43.946Z,99748.44
2023-12-11T14:16:46.838Z,99744.63
2023-12-11T14:19:50.168Z,99729.91
2023-12-11T14:22:53.280Z,99732.84
2023-12-11T14:25:58.210Z,99732.84
2023-12-11T14:29:01.125Z,99751.91
2023-12-11T14:32:04.186Z,99767.13
2023-12-11T14:35:07.605Z,99757.63
2023-12-11T14:38:10.569Z,99740.31
2023-12-11T14:41:14.183Z,99744.19
2023-12-11T14:44:19.224Z,99739.44
2023-12-11T14:47:23.245Z,99725.53
2023-12-11T14:50:26.128Z,99721.75
2023-12-11T14:53:29.698Z,99705.91
2023-12-11T14:56:32.648Z,99703.75
2023-12-11T14:59:36.207Z,99704.97
2023-12-11T15:02:39.427Z,99698.53
2023-12-11T15:05:42.437Z,99697.97
2023-12-11T15:08:45.519Z,99705.59
2023-12-11T15:11:48.498Z,99702.84
2023-12-11T15:14:51.609Z,99695.91
2023-12-11T15:17:54.603Z,99706.06
2023-12-11T15:20:57.639Z,99723.50
2023-12-11T15:24:00.589Z,99730.44
2023-12-11T15:27:05.090Z,99723.50
2023-12-11T15:30:09.385Z,99734.63
2023-12-11T15:33:12.462Z,99721.72
2023-12-11T15:36:19.655Z,99717.03
2023-12-11T15:39:24.898Z,99730.91
2023-12-11T15:42:27.838Z,99726.44
2023-12-11T15:45:30.713Z,99728.00
2023-12-11T15:48:33.922Z,99713.09
2023-12-11T15:51:36.875Z,99728.97
2023-12-11T15:54:44.150Z,99721.03
2023-12-11T15:57:47.073Z,99733.50
2023-12-11T16:00:50.109Z,99714.75
2023-12-11T16:03:53.578Z,99718.53
2023-12-11T16:06:56.353Z,99726.69
2023-12-11T16:09:59.525Z,99716.88
2023-12-11T16:13:02.381Z,99707.66
2023-12-11T16:16:10.148Z,99713.75
2023-12-11T16:19:13.803Z,99719.66
2023-12-11T16:22:17.738Z,99714.56
2023-12-11T16:25:20.323Z,99716.19
2023-12-11T16:28:23.623Z,99706.19
2023-12-11T16:31:26.384Z,99700.69
2023-12-11T16:34:32.702Z,99702.75
2023-12-11T16:37:35.520Z,99700.84
2023-12-11T16:40:40.945Z,99705.63
2023-12-11T16:43:48.711Z,99708.00
2023-12-11T16:46:51.863Z,99696.69
2023-12-11T16:50:02.070Z,99690.72
2023-12-11T16:53:09.974Z,99700.19
2023-12-11T16:56:13.887Z,99714.41
2023-12-11T16:59:17.636Z,99708.94
2023-12-11T17:02:20.299Z,99708.62
2023-12-11T17:05:23.701Z,99713.22
2023-12-11T17:08:26.874Z,99711.03
2023-12-11T17:11:34.555Z,99716.50
2023-12-11T17:14:37.059Z,99708.28
2023-12-11T17:17:58.840Z,99715.69
2023-12-11T17:21:03.677Z,99709.13
2023-12-11T17:24:07.821Z,99719.09
2023-12-11T17:27:10.582Z,99723.06
2023-12-11T17:30:14.001Z,99728.94
2023-12-11T17:33:16.606Z,99735.38
2023-12-11T17:36:20.029Z,99739.94
2023-12-11T17:39:24.172Z,99748.81
2023-12-11T17:42:28.109Z,99752.78
2023-12-11T17:45:30.637Z,99745.28
2023-12-11T17:48:34.003Z,99739.97
2023-12-11T17:51:36.794Z,99743.25
2023-12-11T17:54:40.025Z,99731.53
2023-12-11T17:57:42.743Z,99732.38
2023-12-11T18:00:46.057Z,99722.97
2023-12-11T18:03:49.548Z,99727.56
2023-12-11T18:06:52.771Z,99718.84
2023-12-11T18:09:55.692Z,99702.88
2023-12-11T18:12:58.584Z,99711.78
2023-12-11T18:16:01.621Z,99706.38
2023-12-11T18:19:04.649Z,99701.56
2023-12-11T18:22:08.079Z,99700.88
2023-12-11T18:25:12.330Z,99711.72
2023-12-11T18:28:16.510Z,99725.91
2023-12-11T18:31:19.629Z,99726.87
2023-12-11T18:34:23.059Z,99728.09
2023-12-11T18:37:26.772Z,99723.44
2023-12-11T18:40:29.915Z,99723.41
2023-12-11T18:43:33.025Z,99723.50
2023-12-11T18:46:36.200Z,99738.81
2023-12-11T18:49:46.064Z,99747.88
2023-12-11T18:52:49.731Z,99737.13
2023-12-11T18:56:01.776Z,99719.19
2023-12-11T18:59:04.971Z,99697.59
2023-12-11T19:02:09.191Z,99698.28
2023-12-11T19:05:12.437Z,99713.28
2023-12-11T19:08:15.479Z,99702.97
2023-12-11T19:11:20.470Z,99698.97
2023-12-11T19:14:24.045Z,99699.34
2023-12-11T19:17:47.168Z,99698.38
2023-12-11T19:20:50.076Z,99701.13
2023-12-11T19:23:53.015Z,99686.63
2023-12-11T19:26:55.959Z,99671.34
2023-12-11T19:29:58.893Z,99646.91
2023-12-11T19:33:03.174Z,99661.84
2023-12-11T19:36:07.453Z,99668.13
2023-12-11T19:39:11.069Z,99665.72
2023-12-11T19:42:14.164Z,99661.62
2023-12-11T19:45:17.679Z,99636.50
2023-12-11T19:48:20.851Z,99628.34
2023-12-11T19:51:48.126Z,99642.72
2023-12-11T19:55:10.287Z,99647.25
2023-12-11T19:58:13.169Z,99646.62
2023-12-11T20:01:26.517Z,99644.53
2023-12-11T20:04:29.924Z,99642.03
2023-12-11T20:07:32.802Z,99639.12
2023-12-11T20:10:36.216Z,99640.69
2023-12-11T20:13:40.174Z,99645.84
2023-12-11T20:16:43.848Z,99638.34
2023-12-11T20:19:46.774Z,99638.72
2023-12-11T20:22:52.563Z,99646.25
2023-12-11T20:26:01.483Z,99627.59
2023-12-11T20:29:04.974Z,99637.66
2023-12-11T20:32:07.595Z,99616.34
2023-12-11T20:35:10.842Z,99630.66
2023-12-11T20:38:13.530Z,99630.22
2023-12-11T20:41:25.052Z,99644.06
2023-12-11T20:44:27.738Z,99636.69
2023-12-11T20:47:31.216Z,99659.69
2023-12-11T20:50:34.105Z,99669.69
2023-12-11T20:53:39.048Z,99666.47
2023-12-11T20:56:41.745Z,99679.97
2023-12-11T20:59:45.162Z,99678.50
2023-12-11T21:02:48.131Z,99668.81
2023-12-11T21:05:51.250Z,99659.13
2023-12-11T21:08:56.097Z,99654.84
2023-12-11T21:11:59.354Z,99662.94
2023-12-11T21:15:03.942Z,99659.03
2023-12-11T21:18:07.657Z,99658.97
2023-12-11T21:21:16.246Z,99666.28
2023-12-11T21:24:19.541Z,99669.91
2023-12-11T21:27:22.267Z,99676.28
2023-12-11T21:30:26.496Z,99669.12
2023-12-11T21:33:29.382Z,99668.19
2023-12-11T21:36:32.944Z,99691.16
2023-12-11T21:39:35.592Z,99710.78
2023-12-11T21:42:38.889Z,99698.50
2023-12-11T21:45:41.559Z,99716.97
2023-12-11T21:48:48.163Z,99713.63
2023-12-11T21:51:51.498Z,99697.66
2023-12-11T21:54:54.790Z,99703.63
2023-12-11T21:57:57.374Z,99724.09
2023-12-11T22:01:00.670Z,99710.16
2023-12-11T22:04:03.974Z,99707.69
2023-12-11T22:07:07.005Z,99702.28
2023-12-11T22:10:10.056Z,99698.25
2023-12-11T22:13:12.984Z,99693.75
2023-12-11T22:16:16.495Z,99711.06
2023-12-11T22:19:19.749Z,99700.34
2023-12-11T22:22:22.724Z,99699.84
2023-12-11T22:25:25.571Z,99708.38
2023-12-11T22:28:28.636Z,99711.13
2023-12-11T22:31:31.772Z,99720.91
2023-12-11T22:34:35.232Z,99718.25
2023-12-11T22:37:39.605Z,99723.09
2023-12-11T22:40:42.725Z,99724.78
2023-12-11T22:43:45.555Z,99716.47
2023-12-11T22:46:48.520Z,99722.59
2023-12-11T22:49:51.400Z,99718.41
2023-12-11T22:52:54.475Z,99728.03
2023-12-11T22:55:57.413Z,99718.63
2023-12-11T22:59:00.328Z,99730.72
2023-12-11T23:02:04.458Z,99733.31
2023-12-11T23:05:07.962Z,99732.44
2023-12-11T23:08:10.885Z,99729.78
2023-12-11T23:11:13.854Z,99729.91
2023-12-11T23:14:16.754Z,99730.91
2023-12-11T23:17:19.589Z,99730.72
2023-12-11T23:20:22.441Z,99729.09
2023-12-11T23:23:25.497Z,99720.41
2023-12-11T23:26:28.348Z,99716.34
2023-12-11T23:29:31.199Z,99715.56
2023-12-11T23:32:34.028Z,99718.84
2023-12-11T23:35:37.042Z,99734.50
2023-12-11T23:38:40.403Z,99750.13
2023-12-11T23:41:44.756Z,99752.72
2023-12-11T23:44:47.685Z,99764.94
2023-12-11T23:47:50.620Z,99756.41
2023-12-11T23:50:53.494Z,99753.03
2023-12-11T23:53:56.620Z,99747.78
2023-12-11T23:56:59.448Z,99745.19
